sensor_id;sensor_type;location;lat;lon;timestamp;pressure;altitude;pressure_sealevel;temperature;humidity
48386;BME280;34644;47.964;7.982;2023-02-18T00:05:21;97789.13;;;16.15;66.90
48386;BME280;34644;47.964;7.982;2023-02-18T00:12:21;97784.84;;;16.14;67.27
48386;BME280;34644;47.964;7.982;2023-02-18T00:19:22;97784.84;;;16.14;67.18
48386;BME280;34644;47.964;7.982;2023-02-18T00:26:22;97773.41;;;16.14;67.35
48386;BME280;34644;47.964;7.982;2023-02-18T00:33:23;97769.94;;;16.13;67.21
48386;BME280;34644;47.964;7.982;2023-02-18T00:40:23;97759.06;;;16.15;67.37
48386;BME280;34644;47.964;7.982;2023-02-18T00:47:23;97742.28;;;16.14;67.24
48386;BME280;34644;47.964;7.982;2023-02-18T00:54:24;97748.19;;;16.16;67.44
48386;BME280;34644;47.964;7.982;2023-02-18T01:01:24;97736.41;;;16.12;67.43
48386;BME280;34644;47.964;7.982;2023-02-18T01:08:24;97734.53;;;16.13;67.51
48386;BME280;34644;47.964;7.982;2023-02-18T01:15:25;97724.16;;;16.11;67.23
48386;BME280;34644;47.964;7.982;2023-02-18T01:22:25;97720.69;;;16.10;67.69
48386;BME280;34644;47.964;7.982;2023-02-18T01:29:26;97721.00;;;16.14;67.71
48386;BME280;34644;47.964;7.982;2023-02-18T01:36:26;97719.19;;;16.15;67.64
48386;BME280;34644;47.964;7.982;2023-02-18T01:43:29;97714.34;;;16.12;67.49
48386;BME280;34644;47.964;7.982;2023-02-18T01:50:30;97716.28;;;16.16;67.32
48386;BME280;34644;47.964;7.982;2023-02-18T01:57:34;97710.38;;;16.14;67.76
48386;BME280;34644;47.964;7.982;2023-02-18T02:04:36;97695.72;;;16.12;67.32
48386;BME280;34644;47.964;7.982;2023-02-18T02:19:03;97696.28;;;16.14;67.40
48386;BME280;34644;47.964;7.982;2023-02-18T02:40:43;97679.28;;;16.15;67.04
48386;BME280;34644;47.964;7.982;2023-02-18T02:48:07;97683.28;;;16.17;67.27
48386;BME280;34644;47.964;7.982;2023-02-18T02:55:10;97675.31;;;16.17;66.94
48386;BME280;34644;47.964;7.982;2023-02-18T03:16:39;97666.53;;;16.17;66.86
48386;BME280;34644;47.964;7.982;2023-02-18T03:23:45;97663.09;;;16.16;67.00
48386;BME280;34644;47.964;7.982;2023-02-18T03:38:00;97640.75;;;16.17;66.92
48386;BME280;34644;47.964;7.982;2023-02-18T03:45:03;97646.06;;;16.17;66.78
48386;BME280;34644;47.964;7.982;2023-02-18T03:52:03;97649.78;;;16.16;66.69
48386;BME280;34644;47.964;7.982;2023-02-18T03:59:04;97643.63;;;16.16;66.60
48386;BME280;34644;47.964;7.982;2023-02-18T04:06:04;97655.91;;;16.17;66.30
48386;BME280;34644;47.964;7.982;2023-02-18T04:13:05;97660.97;;;16.18;66.36
48386;BME280;34644;47.964;7.982;2023-02-18T04:20:05;97652.44;;;16.16;66.17
48386;BME280;34644;47.964;7.982;2023-02-18T04:27:06;97644.72;;;16.15;66.32
48386;BME280;34644;47.964;7.982;2023-02-18T04:34:06;97647.84;;;16.12;66.53
48386;BME280;34644;47.964;7.982;2023-02-18T04:41:07;97657.19;;;16.14;66.45
48386;BME280;34644;47.964;7.982;2023-02-18T04:48:07;97654.53;;;16.14;66.39
48386;BME280;34644;47.964;7.982;2023-02-18T04:55:08;97661.41;;;16.10;66.39
48386;BME280;34644;47.964;7.982;2023-02-18T05:02:08;97649.94;;;16.09;66.24
48386;BME280;34644;47.964;7.982;2023-02-18T05:09:09;97633.97;;;16.09;66.14
48386;BME280;34644;47.964;7.982;2023-02-18T05:16:09;97648.09;;;16.10;66.06
48386;BME280;34644;47.964;7.982;2023-02-18T05:23:09;97648.34;;;16.08;66.30
48386;BME280;34644;47.964;7.982;2023-02-18T05:30:10;97641.41;;;16.07;66.18
48386;BME280;34644;47.964;7.982;2023-02-18T05:37:10;97645.69;;;16.08;66.06
48386;BME280;34644;47.964;7.982;2023-02-18T05:44:12;97636.88;;;16.08;66.15
48386;BME280;34644;47.964;7.982;2023-02-18T05:51:31;97623.81;;;16.06;65.85
48386;BME280;34644;47.964;7.982;2023-02-18T05:58:31;97625.50;;;16.13;65.43
48386;BME280;34644;47.964;7.982;2023-02-18T06:05:31;97623.03;;;16.06;64.96
48386;BME280;34644;47.964;7.982;2023-02-18T06:12:32;97626.41;;;16.01;63.91
48386;BME280;34644;47.964;7.982;2023-02-18T06:19:32;97624.81;;;16.00;63.56
48386;BME280;34644;47.964;7.982;2023-02-18T06:26:32;97624.00;;;16.00;62.85
48386;BME280;34644;47.964;7.982;2023-02-18T06:33:33;97618.94;;;15.81;63.28
48386;BME280;34644;47.964;7.982;2023-02-18T06:40:33;97610.41;;;15.79;63.35
48386;BME280;34644;47.964;7.982;2023-02-18T06:47:33;97608.81;;;15.78;63.28
48386;BME280;34644;47.964;7.982;2023-02-18T06:54:34;97608.81;;;15.78;63.19
48386;BME280;34644;47.964;7.982;2023-02-18T07:01:34;97615.47;;;15.81;63.10
48386;BME280;34644;47.964;7.982;2023-02-18T07:08:34;97613.44;;;15.71;62.86
48386;BME280;34644;47.964;7.982;2023-02-18T07:15:36;97629.13;;;15.72;62.67
48386;BME280;34644;47.964;7.982;2023-02-18T07:22:36;97617.72;;;15.72;62.26
48386;BME280;34644;47.964;7.982;2023-02-18T07:29:37;97619.78;;;15.70;61.79
48386;BME280;34644;47.964;7.982;2023-02-18T07:36:37;97631.38;;;15.64;62.31
48386;BME280;34644;47.964;7.982;2023-02-18T07:43:37;97631.38;;;15.64;61.77
48386;BME280;34644;47.964;7.982;2023-02-18T07:50:38;97624.72;;;15.61;61.55
48386;BME280;34644;47.964;7.982;2023-02-18T07:57:38;97628.66;;;15.59;61.21
48386;BME280;34644;47.964;7.982;2023-02-18T08:04:56;97636.06;;;15.56;61.05
48386;BME280;34644;47.964;7.982;2023-02-18T08:11:56;97628.66;;;15.59;60.33
48386;BME280;34644;47.964;7.982;2023-02-18T08:18:57;97626.38;;;15.50;60.86
48386;BME280;34644;47.964;7.982;2023-02-18T08:25:57;97626.72;;;15.54;60.51
48386;BME280;34644;47.964;7.982;2023-02-18T08:32:59;97628.81;;;15.52;60.72
48386;BME280;34644;47.964;7.982;2023-02-18T08:40:00;97629.13;;;15.55;60.11
48386;BME280;34644;47.964;7.982;2023-02-18T08:47:01;97629.38;;;15.54;60.15
48386;BME280;34644;47.964;7.982;2023-02-18T08:54:01;97622.22;;;15.54;60.13
48386;BME280;34644;47.964;7.982;2023-02-18T09:01:06;97636.22;;;15.50;60.36
48386;BME280;34644;47.964;7.982;2023-02-18T09:08:06;97631.38;;;15.47;60.33
48386;BME280;34644;47.964;7.982;2023-02-18T09:15:07;97643.03;;;15.46;59.91
48386;BME280;34644;47.964;7.982;2023-02-18T09:22:07;97636.34;;;15.43;59.52
48386;BME280;34644;47.964;7.982;2023-02-18T09:29:08;97634.03;;;15.47;59.88
48386;BME280;34644;47.964;7.982;2023-02-18T09:36:08;97636.59;;;15.42;59.57
48386;BME280;34644;47.964;7.982;2023-02-18T09:43:12;97640.38;;;15.46;59.81
48386;BME280;34644;47.964;7.982;2023-02-18T09:50:18;97658.97;;;15.46;59.74
48386;BME280;34644;47.964;7.982;2023-02-18T09:57:24;97627.25;;;15.39;60.07
48386;BME280;34644;47.964;7.982;2023-02-18T10:04:30;97625.72;;;15.43;59.49
48386;BME280;34644;47.964;7.982;2023-02-18T10:11:32;97624.69;;;15.44;59.54
48386;BME280;34644;47.964;7.982;2023-02-18T10:18:35;97616.25;;;15.64;59.64
48386;BME280;34644;47.964;7.982;2023-02-18T10:25:40;97624.94;;;15.60;59.79
48386;BME280;34644;47.964;7.982;2023-02-18T10:32:43;97608.59;;;15.68;59.50
48386;BME280;34644;47.964;7.982;2023-02-18T10:54:23;97574.53;;;15.65;58.81
48386;BME280;34644;47.964;7.982;2023-02-18T11:01:24;97573.50;;;15.66;59.00
48386;BME280;34644;47.964;7.982;2023-02-18T11:08:28;97566.41;;;15.71;58.99
48386;BME280;34644;47.964;7.982;2023-02-18T11:15:32;97565.13;;;15.74;58.65
48386;BME280;34644;47.964;7.982;2023-02-18T11:22:34;97570.44;;;15.74;58.42
48386;BME280;34644;47.964;7.982;2023-02-18T11:29:40;97569.88;;;15.72;57.96
48386;BME280;34644;47.964;7.982;2023-02-18T11:36:43;97560.84;;;15.73;57.84
48386;BME280;34644;47.964;7.982;2023-02-18T11:43:48;97543.41;;;15.77;58.11
48386;BME280;34644;47.964;7.982;2023-02-18T11:50:49;97556.91;;;15.93;58.64
48386;BME280;34644;47.964;7.982;2023-02-18T12:19:29;97520.69;;;16.08;59.90
48386;BME280;34644;47.964;7.982;2023-02-18T12:26:43;97501.09;;;16.15;60.21
48386;BME280;34644;47.964;7.982;2023-02-18T13:17:07;97485.06;;;16.81;59.97
48386;BME280;34644;47.964;7.982;2023-02-18T13:24:10;97487.09;;;16.74;60.00
48386;BME280;34644;47.964;7.982;2023-02-18T14:00:06;97439.97;;;16.74;59.77
48386;BME280;34644;47.964;7.982;2023-02-18T14:21:34;97414.91;;;16.92;59.72
48386;BME280;34644;47.964;7.982;2023-02-18T14:35:39;97413.03;;;16.93;59.68
48386;BME280;34644;47.964;7.982;2023-02-18T14:49:48;97411.66;;;16.90;59.77
48386;BME280;34644;47.964;7.982;2023-02-18T14:56:52;97398.28;;;16.85;59.72
48386;BME280;34644;47.964;7.982;2023-02-18T15:03:55;97406.78;;;16.82;59.70
48386;BME280;34644;47.964;7.982;2023-02-18T15:10:57;97411.06;;;16.83;59.52
48386;BME280;34644;47.964;7.982;2023-02-18T15:17:58;97406.25;;;16.80;59.48
48386;BME280;34644;47.964;7.982;2023-02-18T15:24:58;97404.88;;;16.77;59.34
48386;BME280;34644;47.964;7.982;2023-02-18T15:31:59;97403.53;;;16.75;59.49
48386;BME280;34644;47.964;7.982;2023-02-18T15:39:02;97390.75;;;16.72;59.49
48386;BME280;34644;47.964;7.982;2023-02-18T15:46:08;97384.06;;;16.69;59.52
48386;BME280;34644;47.964;7.982;2023-02-18T15:53:13;97384.31;;;16.68;59.40
48386;BME280;34644;47.964;7.982;2023-02-18T16:00:20;97380.03;;;16.67;59.47
48386;BME280;34644;47.964;7.982;2023-02-18T16:07:27;97382.16;;;16.64;59.42
48386;BME280;34644;47.964;7.982;2023-02-18T16:14:29;97375.50;;;16.62;59.43
48386;BME280;34644;47.964;7.982;2023-02-18T16:21:32;97376.28;;;16.62;59.46
48386;BME280;34644;47.964;7.982;2023-02-18T16:28:40;97362.44;;;16.60;59.44
48386;BME280;34644;47.964;7.982;2023-02-18T16:35:41;97360.81;;;16.59;59.50
48386;BME280;34644;47.964;7.982;2023-02-18T16:42:41;97363.75;;;16.58;59.38
48386;BME280;34644;47.964;7.982;2023-02-18T16:49:43;97361.06;;;16.58;59.42
48386;BME280;34644;47.964;7.982;2023-02-18T16:56:43;97362.13;;;16.57;59.50
48386;BME280;34644;47.964;7.982;2023-02-18T17:03:44;97377.28;;;16.56;59.41
48386;BME280;34644;47.964;7.982;2023-02-18T17:10:45;97375.69;;;16.55;59.34
48386;BME280;34644;47.964;7.982;2023-02-18T17:17:45;97379.41;;;16.54;59.39
48386;BME280;34644;47.964;7.982;2023-02-18T17:24:45;97390.06;;;16.54;59.45
48386;BME280;34644;47.964;7.982;2023-02-18T17:31:45;97389.50;;;16.52;59.46
48386;BME280;34644;47.964;7.982;2023-02-18T17:38:46;97400.97;;;16.53;59.42
48386;BME280;34644;47.964;7.982;2023-02-18T17:45:49;97400.38;;;16.51;59.28
48386;BME280;34644;47.964;7.982;2023-02-18T17:52:50;97410.22;;;16.50;59.38
48386;BME280;34644;47.964;7.982;2023-02-18T17:59:51;97419.25;;;16.49;59.37
48386;BME280;34644;47.964;7.982;2023-02-18T18:06:51;97407.03;;;16.48;59.43
48386;BME280;34644;47.964;7.982;2023-02-18T18:13:51;97411.53;;;16.48;59.36
48386;BME280;34644;47.964;7.982;2023-02-18T18:20:53;97418.72;;;16.47;59.31
48386;BME280;34644;47.964;7.982;2023-02-18T18:27:55;97410.72;;;16.47;59.33
48386;BME280;34644;47.964;7.982;2023-02-18T18:34:55;97401.38;;;16.44;59.41
48386;BME280;34644;47.964;7.982;2023-02-18T18:41:56;97399.53;;;16.45;59.41
48386;BME280;34644;47.964;7.982;2023-02-18T18:48:56;97407.53;;;16.45;59.43
48386;BME280;34644;47.964;7.982;2023-02-18T18:56:01;97409.38;;;16.44;59.32
48386;BME280;34644;47.964;7.982;2023-02-18T19:03:02;97409.63;;;16.43;59.34
48386;BME280;34644;47.964;7.982;2023-02-18T19:10:02;97405.91;;;16.44;59.25
48386;BME280;34644;47.964;7.982;2023-02-18T19:17:02;97402.72;;;16.42;59.30
48386;BME280;34644;47.964;7.982;2023-02-18T19:24:03;97412.28;;;16.43;59.43
48386;BME280;34644;47.964;7.982;2023-02-18T19:31:07;97405.38;;;16.42;59.35
48386;BME280;34644;47.964;7.982;2023-02-18T19:38:09;97408.81;;;16.42;59.29
48386;BME280;34644;47.964;7.982;2023-02-18T19:45:10;97412.28;;;16.43;59.25
48386;BME280;34644;47.964;7.982;2023-02-18T19:52:10;97411.47;;;16.42;59.21
48386;BME280;34644;47.964;7.982;2023-02-18T19:59:11;97410.69;;;16.42;59.23
48386;BME280;34644;47.964;7.982;2023-02-18T20:06:15;97410.94;;;16.40;59.38
48386;BME280;34644;47.964;7.982;2023-02-18T20:13:16;97402.72;;;16.42;59.30
48386;BME280;34644;47.964;7.982;2023-02-18T20:20:17;97406.41;;;16.41;59.38
48386;BME280;34644;47.964;7.982;2023-02-18T20:27:17;97406.41;;;16.41;59.41
48386;BME280;34644;47.964;7.982;2023-02-18T20:34:18;97404.56;;;16.41;59.29
48386;BME280;34644;47.964;7.982;2023-02-18T20:41:19;97406.41;;;16.41;59.37
48386;BME280;34644;47.964;7.982;2023-02-18T20:48:20;97412.56;;;16.41;59.46
48386;BME280;34644;47.964;7.982;2023-02-18T20:55:20;97409.06;;;16.41;59.36
48386;BME280;34644;47.964;7.982;2023-02-18T21:02:20;97416.25;;;16.40;59.42
48386;BME280;34644;47.964;7.982;2023-02-18T21:09:20;97392.56;;;16.39;59.31
48386;BME280;34644;47.964;7.982;2023-02-18T21:16:21;97393.63;;;16.38;59.26
48386;BME280;34644;47.964;7.982;2023-02-18T21:23:22;97380.31;;;16.38;59.32
48386;BME280;34644;47.964;7.982;2023-02-18T21:30:22;97381.38;;;16.37;59.34
48386;BME280;34644;47.964;7.982;2023-02-18T21:37:22;97372.84;;;16.35;59.35
48386;BME280;34644;47.964;7.982;2023-02-18T21:44:22;97363.81;;;16.36;59.26
48386;BME280;34644;47.964;7.982;2023-02-18T21:51:23;97364.84;;;16.35;59.18
48386;BME280;34644;47.964;7.982;2023-02-18T21:58:41;97375.50;;;16.35;59.32
48386;BME280;34644;47.964;7.982;2023-02-18T22:05:43;97382.94;;;16.33;59.24
48386;BME280;34644;47.964;7.982;2023-02-18T22:12:43;97381.06;;;16.33;59.25
48386;BME280;34644;47.964;7.982;2023-02-18T22:19:44;97371.50;;;16.32;59.21
48386;BME280;34644;47.964;7.982;2023-02-18T22:26:45;97372.28;;;16.33;59.23
48386;BME280;34644;47.964;7.982;2023-02-18T22:33:45;97364.31;;;16.33;59.19
48386;BME280;34644;47.964;7.982;2023-02-18T22:40:49;97366.19;;;16.32;59.19
48386;BME280;34644;47.964;7.982;2023-02-18T22:47:50;97368.00;;;16.32;59.10
48386;BME280;34644;47.964;7.982;2023-02-18T22:54:51;97364.81;;;16.30;59.03
48386;BME280;34644;47.964;7.982;2023-02-18T23:01:52;97360.03;;;16.32;58.95
48386;BME280;34644;47.964;7.982;2023-02-18T23:08:52;97359.50;;;16.30;58.95
48386;BME280;34644;47.964;7.982;2023-02-18T23:15:57;97352.56;;;16.28;59.03
48386;BME280;34644;47.964;7.982;2023-02-18T23:22:57;97359.75;;;16.28;59.03
48386;BME280;34644;47.964;7.982;2023-02-18T23:29:57;97349.34;;;16.26;58.88
48386;BME280;34644;47.964;7.982;2023-02-18T23:36:58;97343.78;;;16.28;59.00
48386;BME280;34644;47.964;7.982;2023-02-18T23:43:58;97348.84;;;16.30;58.86
48386;BME280;34644;47.964;7.982;2023-02-18T23:51:01;97338.47;;;16.28;58.92
48386;BME280;34644;47.964;7.982;2023-02-18T23:58:03;97348.31;;;16.27;58.92
